Camanche, Iowa
Current Conditions -  °F | °C
As of 7:35 AM on Sunday 21 Dec 2014 (Local Time) from KCWI Reporting Station
Broken Clouds Broken Clouds  
Wind Chill: 28°   Ceiling: 900
Heat Index: 34°   Visibility: 4mi
Dew Point: 30°   Wind: 7mph
Humidity: 87%   Direction: 160°SSE
Pressure: 30.15"   Gusts: NA
Location:  41.79°N, 90.26°W
Report Text: KCWI 211335Z AUTO 16006KT 4SM BKN009 BKN034 01/M01 A3015 RMK AO1
Loading
Personal Weather Stations






























Interactive Weather Map New forecast layout! Learn more

10-Day Weather Forecast

Advertisements
Track Severe Weather on mobile